createdAt,value
2017-12-08T00:01:44.808Z,9.70
2017-12-08T00:04:13.090Z,9.80
2017-12-08T00:06:41.328Z,9.80
2017-12-08T00:09:09.985Z,10.50
2017-12-08T00:11:38.248Z,10.50
2017-12-08T00:14:06.496Z,10.20
2017-12-08T00:16:34.752Z,10.40
2017-12-08T00:19:03.406Z,10.40
2017-12-08T00:21:31.640Z,10.40
2017-12-08T00:23:59.916Z,10.30
2017-12-08T00:26:28.163Z,10.40
2017-12-08T00:29:00.320Z,10.50
2017-12-08T00:31:28.604Z,10.60
2017-12-08T00:33:57.568Z,10.40
2017-12-08T00:36:25.840Z,10.40
2017-12-08T00:38:54.116Z,9.90
2017-12-08T00:41:22.354Z,9.70
2017-12-08T00:43:50.589Z,9.90
2017-12-08T00:46:18.846Z,10.20
2017-12-08T00:48:47.082Z,10.20
2017-12-08T00:51:15.322Z,10.20
2017-12-08T00:53:44.003Z,10.30
2017-12-08T00:56:12.645Z,10.00
2017-12-08T00:58:40.916Z,10.00
2017-12-08T01:01:09.153Z,10.00
2017-12-08T01:03:37.387Z,10.00
2017-12-08T01:06:05.657Z,10.10
2017-12-08T01:08:33.896Z,10.10
2017-12-08T01:11:02.144Z,10.30
2017-12-08T01:13:30.798Z,9.90
2017-12-08T01:15:59.025Z,9.90
2017-12-08T01:18:27.263Z,10.00
2017-12-08T01:20:55.513Z,10.30
2017-12-08T01:23:23.755Z,10.30
2017-12-08T01:25:52.281Z,10.30
2017-12-08T01:28:20.511Z,10.40
2017-12-08T01:30:48.928Z,10.50
2017-12-08T01:33:17.169Z,10.60
2017-12-08T01:35:45.412Z,9.90
2017-12-08T01:38:14.097Z,10.20
2017-12-08T01:40:42.724Z,10.30
2017-12-08T01:43:10.968Z,10.30
2017-12-08T01:45:39.636Z,10.50
2017-12-08T01:48:08.324Z,10.60
2017-12-08T01:50:36.968Z,10.40
2017-12-08T01:53:05.236Z,10.40
2017-12-08T01:55:33.480Z,10.40
2017-12-08T01:58:01.728Z,10.50
2017-12-08T02:00:38.860Z,10.50
2017-12-08T02:03:07.097Z,10.40
2017-12-08T02:05:35.731Z,10.60
2017-12-08T02:08:04.010Z,10.60
2017-12-08T02:10:33.030Z,10.70
2017-12-08T02:13:01.259Z,10.70
2017-12-08T02:15:29.512Z,10.70
2017-12-08T02:17:58.155Z,10.40
2017-12-08T02:20:26.382Z,10.40
2017-12-08T02:22:54.644Z,10.50
2017-12-08T02:25:23.275Z,10.30
2017-12-08T02:27:51.504Z,10.40
2017-12-08T02:30:20.190Z,10.20
2017-12-08T02:32:48.825Z,9.80
2017-12-08T02:35:17.064Z,9.80
2017-12-08T02:37:45.317Z,9.80
2017-12-08T02:40:13.554Z,10.10
2017-12-08T02:42:41.827Z,10.30
2017-12-08T02:45:10.056Z,10.70
2017-12-08T02:47:38.694Z,10.70
2017-12-08T02:50:06.958Z,10.80
2017-12-08T02:52:35.193Z,10.70
2017-12-08T02:55:03.824Z,10.70
2017-12-08T02:57:32.096Z,10.70
2017-12-08T03:00:00.328Z,10.70
2017-12-08T03:02:28.964Z,10.90
2017-12-08T03:04:57.232Z,10.90
2017-12-08T03:07:25.455Z,11.00
2017-12-08T03:09:54.093Z,10.90
2017-12-08T03:12:22.348Z,10.90
2017-12-08T03:14:50.587Z,10.60
2017-12-08T03:17:19.552Z,10.60
2017-12-08T03:19:47.813Z,10.60
2017-12-08T03:22:16.048Z,10.90
2017-12-08T03:24:44.592Z,11.10
2017-12-08T03:27:12.849Z,11.30
2017-12-08T03:29:41.084Z,11.50
2017-12-08T03:32:09.327Z,11.60
2017-12-08T03:34:37.688Z,11.60
2017-12-08T03:37:05.934Z,11.60
2017-12-08T03:39:34.193Z,11.50
2017-12-08T03:42:02.463Z,11.50
2017-12-08T03:44:30.696Z,11.50
2017-12-08T03:46:58.943Z,11.40
2017-12-08T03:49:27.224Z,11.50
2017-12-08T03:51:55.455Z,11.50
2017-12-08T03:54:24.084Z,11.20
2017-12-08T03:56:52.332Z,11.20
2017-12-08T03:59:20.569Z,11.30
2017-12-08T04:01:49.140Z,11.40
2017-12-08T04:04:17.729Z,11.50
2017-12-08T04:06:45.955Z,11.50
2017-12-08T04:09:14.208Z,11.60
2017-12-08T04:11:42.877Z,11.80
2017-12-08T04:14:11.508Z,11.90
2017-12-08T04:16:39.746Z,11.90
2017-12-08T04:19:08.708Z,11.90
2017-12-08T04:21:36.948Z,11.90
2017-12-08T04:24:05.184Z,11.90
2017-12-08T04:26:33.437Z,11.90
2017-12-08T04:29:01.688Z,11.90
2017-12-08T04:31:29.979Z,11.90
2017-12-08T04:33:58.253Z,11.90
2017-12-08T04:36:26.521Z,11.90
2017-12-08T04:38:54.756Z,11.90
2017-12-08T04:41:23.025Z,11.80
2017-12-08T04:43:52.088Z,11.60
2017-12-08T04:46:20.318Z,11.60
2017-12-08T04:48:48.573Z,11.40
2017-12-08T04:51:16.863Z,11.30
2017-12-08T04:53:45.104Z,10.90
2017-12-08T04:56:13.664Z,10.70
2017-12-08T04:58:41.918Z,10.80
2017-12-08T05:01:10.151Z,10.90
2017-12-08T05:03:38.779Z,10.90
2017-12-08T05:06:07.288Z,10.90
2017-12-08T05:08:35.520Z,10.70
2017-12-08T05:11:03.760Z,10.70
2017-12-08T05:13:32.442Z,10.90
2017-12-08T05:16:00.680Z,10.90
2017-12-08T05:18:28.939Z,10.70
2017-12-08T05:20:57.208Z,10.70
2017-12-08T05:23:25.449Z,10.90
2017-12-08T05:25:54.090Z,10.90
2017-12-08T05:28:22.351Z,10.90
2017-12-08T05:30:50.587Z,11.00
2017-12-08T05:33:18.845Z,10.40
2017-12-08T05:35:47.131Z,10.30
2017-12-08T05:38:15.760Z,9.30
2017-12-08T05:40:44.274Z,9.30
2017-12-08T05:43:12.547Z,9.70
2017-12-08T05:45:40.812Z,10.00
2017-12-08T05:48:09.081Z,10.30
2017-12-08T05:50:38.245Z,10.30
2017-12-08T05:53:06.495Z,10.30
2017-12-08T05:55:35.124Z,10.30
2017-12-08T05:58:03.392Z,10.30
2017-12-08T06:00:31.628Z,10.40
2017-12-08T06:02:59.859Z,10.30
2017-12-08T06:05:28.140Z,10.50
2017-12-08T06:07:56.380Z,10.20
2017-12-08T06:10:24.618Z,9.90
2017-12-08T06:12:52.859Z,10.20
2017-12-08T06:15:21.369Z,10.40
2017-12-08T06:17:49.676Z,10.70
2017-12-08T06:20:18.910Z,11.10
2017-12-08T06:22:47.143Z,11.10
2017-12-08T06:25:15.777Z,11.10
2017-12-08T06:27:44.040Z,11.10
2017-12-08T06:30:12.293Z,11.00
2017-12-08T06:32:40.535Z,11.10
2017-12-08T06:35:08.792Z,11.30
2017-12-08T06:37:37.120Z,11.30
2017-12-08T06:40:05.404Z,11.30
2017-12-08T06:42:33.652Z,11.30
2017-12-08T06:45:01.898Z,11.40
2017-12-08T06:47:30.177Z,11.30
2017-12-08T06:49:58.412Z,11.40
2017-12-08T06:52:26.656Z,11.50
2017-12-08T06:54:54.987Z,11.60
2017-12-08T06:57:23.601Z,11.60
2017-12-08T06:59:51.936Z,11.50
2017-12-08T07:02:20.175Z,11.40
2017-12-08T07:04:48.964Z,11.10
2017-12-08T07:07:17.204Z,11.10
2017-12-08T07:09:45.792Z,11.20
2017-12-08T07:12:14.055Z,11.20
2017-12-08T07:14:42.337Z,11.30
2017-12-08T07:17:10.623Z,11.40
2017-12-08T07:19:39.075Z,11.40
2017-12-08T07:22:07.330Z,11.40
2017-12-08T07:24:35.589Z,11.30
2017-12-08T07:27:03.848Z,11.20
2017-12-08T07:29:32.104Z,11.10
2017-12-08T07:32:00.396Z,11.00
2017-12-08T07:34:28.632Z,10.80
2017-12-08T07:36:56.876Z,10.80
2017-12-08T07:39:25.137Z,10.80
2017-12-08T07:41:53.772Z,10.90
2017-12-08T07:44:22.072Z,10.90
2017-12-08T07:46:50.314Z,10.60
2017-12-08T07:49:18.612Z,10.70
2017-12-08T07:51:46.891Z,10.90
2017-12-08T07:54:15.150Z,11.10
2017-12-08T07:56:43.860Z,11.30
2017-12-08T07:59:12.570Z,10.80
2017-12-08T08:01:41.259Z,10.40
2017-12-08T08:04:10.160Z,10.50
2017-12-08T08:06:38.800Z,10.60
2017-12-08T08:09:07.043Z,10.60
2017-12-08T08:11:35.288Z,10.80
2017-12-08T08:14:04.036Z,10.70
2017-12-08T08:16:32.282Z,10.70
2017-12-08T08:19:00.528Z,10.70
2017-12-08T08:21:29.168Z,10.80
2017-12-08T08:23:57.431Z,10.80
2017-12-08T08:26:25.663Z,11.00
2017-12-08T08:28:54.297Z,11.70
2017-12-08T08:31:22.564Z,11.70
2017-12-08T08:33:50.848Z,12.10
2017-12-08T08:36:19.092Z,12.50
2017-12-08T08:38:47.407Z,12.80
2017-12-08T08:41:15.728Z,13.30
2017-12-08T08:43:44.375Z,14.20
2017-12-08T08:46:12.631Z,14.20
2017-12-08T08:48:41.141Z,14.60
2017-12-08T08:51:09.390Z,15.00
2017-12-08T08:53:37.632Z,15.00
2017-12-08T08:56:06.294Z,15.30
2017-12-08T08:58:34.539Z,15.30
2017-12-08T09:01:02.840Z,14.80
2017-12-08T09:03:31.096Z,14.00
2017-12-08T09:05:59.336Z,13.50
2017-12-08T09:08:27.578Z,13.30
2017-12-08T09:10:56.228Z,13.80
2017-12-08T09:13:24.470Z,13.80
2017-12-08T09:15:52.712Z,14.00
2017-12-08T09:18:21.375Z,14.50
2017-12-08T09:20:49.609Z,14.50
2017-12-08T09:23:17.864Z,14.70
2017-12-08T09:25:46.841Z,14.70
2017-12-08T09:28:15.728Z,14.60
2017-12-08T09:30:44.504Z,14.20
2017-12-08T09:33:12.814Z,14.20
2017-12-08T09:35:41.505Z,13.20
2017-12-08T09:38:09.850Z,13.20
2017-12-08T09:40:38.125Z,12.90
2017-12-08T09:43:06.434Z,13.30
2017-12-08T09:45:34.853Z,13.50
2017-12-08T09:48:03.183Z,13.60
2017-12-08T09:50:31.829Z,13.80
2017-12-08T09:53:00.187Z,13.80
2017-12-08T09:55:28.457Z,14.00
2017-12-08T09:57:56.703Z,13.70
2017-12-08T10:00:25.120Z,13.60
2017-12-08T10:02:53.856Z,12.60
2017-12-08T10:05:22.265Z,12.60
2017-12-08T10:07:51.427Z,12.60
2017-12-08T10:10:20.534Z,12.90
2017-12-08T10:12:48.802Z,13.40
2017-12-08T10:15:17.111Z,13.70
2017-12-08T10:17:45.388Z,13.70
2017-12-08T10:20:13.941Z,13.60
2017-12-08T10:22:42.396Z,13.20
2017-12-08T10:25:10.801Z,13.20
2017-12-08T10:27:39.067Z,13.20
2017-12-08T10:30:07.716Z,13.20
2017-12-08T10:32:35.990Z,13.30
2017-12-08T10:35:04.380Z,13.30
2017-12-08T10:37:32.745Z,13.20
2017-12-08T10:40:00.999Z,13.30
2017-12-08T10:42:29.878Z,13.10
2017-12-08T10:44:58.289Z,13.10
2017-12-08T10:47:26.532Z,13.10
2017-12-08T10:49:54.775Z,13.10
2017-12-08T10:52:23.190Z,13.10
2017-12-08T10:54:51.517Z,13.40
2017-12-08T10:57:19.746Z,13.60
2017-12-08T10:59:48.143Z,13.60
2017-12-08T11:02:16.464Z,13.70
2017-12-08T11:04:45.155Z,14.40
2017-12-08T11:07:13.462Z,14.40
2017-12-08T11:09:42.132Z,15.10
2017-12-08T11:12:10.475Z,15.10
2017-12-08T11:14:38.736Z,15.50
2017-12-08T11:17:06.987Z,15.90
2017-12-08T11:19:36.025Z,15.90
2017-12-08T11:22:04.793Z,15.90
2017-12-08T11:24:33.083Z,15.90
2017-12-08T11:27:01.404Z,15.80
2017-12-08T11:29:29.685Z,15.70
2017-12-08T11:31:57.948Z,15.50
2017-12-08T11:34:26.186Z,15.40
2017-12-08T11:36:54.769Z,15.30
2017-12-08T11:39:23.119Z,15.00
2017-12-08T11:41:51.725Z,14.70
2017-12-08T11:44:19.966Z,14.60
2017-12-08T11:46:48.237Z,14.30
2017-12-08T11:49:16.755Z,14.10
2017-12-08T11:51:45.020Z,14.20
2017-12-08T11:54:13.845Z,13.70
2017-12-08T11:56:42.085Z,13.70
2017-12-08T11:59:10.341Z,13.70
2017-12-08T12:01:38.613Z,13.80
2017-12-08T12:04:06.863Z,13.80
2017-12-08T12:06:35.719Z,12.90
2017-12-08T12:09:04.005Z,12.90
2017-12-08T12:11:32.241Z,12.00
2017-12-08T12:14:00.499Z,12.10
2017-12-08T12:16:28.753Z,12.30
2017-12-08T12:18:57.387Z,12.20
2017-12-08T12:21:25.624Z,12.20
2017-12-08T12:23:53.882Z,12.20
2017-12-08T12:26:22.558Z,12.20
2017-12-08T12:28:50.834Z,12.20
2017-12-08T12:31:19.072Z,12.40
2017-12-08T12:33:47.315Z,12.60
2017-12-08T12:36:15.735Z,12.80
2017-12-08T12:38:44.012Z,12.90
2017-12-08T12:41:12.246Z,12.70
2017-12-08T12:43:40.503Z,12.80
2017-12-08T12:46:09.136Z,13.40
2017-12-08T12:48:37.426Z,13.40
2017-12-08T12:51:06.865Z,13.40
2017-12-08T12:53:35.092Z,13.30
2017-12-08T12:56:03.383Z,13.20
2017-12-08T12:58:31.623Z,13.10
2017-12-08T13:00:59.857Z,12.90
2017-12-08T13:03:28.354Z,13.00
2017-12-08T13:05:56.728Z,13.10
2017-12-08T13:08:25.018Z,13.20
2017-12-08T13:10:53.710Z,13.30
2017-12-08T13:13:22.320Z,13.20
2017-12-08T13:15:50.569Z,13.20
2017-12-08T13:18:18.884Z,13.10
2017-12-08T13:20:47.120Z,12.80
2017-12-08T13:23:15.404Z,12.80
2017-12-08T13:25:43.674Z,12.90
2017-12-08T13:28:11.919Z,12.80
2017-12-08T13:30:40.265Z,12.90
2017-12-08T13:33:08.539Z,13.00
2017-12-08T13:35:36.917Z,13.10
2017-12-08T13:38:05.522Z,12.60
2017-12-08T13:40:33.753Z,11.60
2017-12-08T13:43:01.984Z,11.60
2017-12-08T13:45:30.280Z,11.70
2017-12-08T13:47:58.908Z,12.00
2017-12-08T13:50:28.338Z,12.00
2017-12-08T13:52:56.658Z,12.20
2017-12-08T13:58:25.467Z,12.60
2017-12-08T14:00:53.770Z,12.80
2017-12-08T14:03:22.027Z,12.90
2017-12-08T14:05:50.288Z,13.00
2017-12-08T14:08:18.530Z,13.10
2017-12-08T14:10:46.790Z,13.20
2017-12-08T14:13:15.040Z,13.20
2017-12-08T14:15:43.309Z,13.10
2017-12-08T14:18:11.551Z,13.10
2017-12-08T14:20:40.100Z,13.10
2017-12-08T14:23:08.391Z,13.10
2017-12-08T14:25:36.748Z,13.20
2017-12-08T14:28:04.972Z,13.20
2017-12-08T14:30:33.334Z,13.20
2017-12-08T14:33:01.789Z,13.20
2017-12-08T14:35:30.075Z,12.90
2017-12-08T14:37:58.382Z,12.70
2017-12-08T14:40:26.628Z,12.70
2017-12-08T14:42:54.872Z,12.60
2017-12-08T14:45:23.176Z,12.30
2017-12-08T14:47:51.413Z,11.90
2017-12-08T14:50:19.657Z,11.60
2017-12-08T14:52:48.306Z,10.70
2017-12-08T14:55:16.790Z,10.70
2017-12-08T14:57:45.065Z,10.70
2017-12-08T15:00:13.341Z,10.80
2017-12-08T15:02:41.604Z,10.70
2017-12-08T15:05:09.977Z,10.60
2017-12-08T15:07:38.388Z,10.60
2017-12-08T15:10:06.607Z,10.80
2017-12-08T15:12:34.911Z,11.00
2017-12-08T15:15:03.140Z,11.20
2017-12-08T15:17:31.393Z,11.10
2017-12-08T15:19:59.740Z,11.20
2017-12-08T15:22:27.962Z,11.20
2017-12-08T15:24:56.600Z,11.30
2017-12-08T15:27:25.916Z,11.30
2017-12-08T15:29:54.741Z,11.40
2017-12-08T15:32:23.005Z,11.30
2017-12-08T15:34:51.723Z,11.30
2017-12-08T15:37:20.858Z,11.30
2017-12-08T15:39:49.133Z,11.30
2017-12-08T15:42:17.384Z,11.20
2017-12-08T15:44:45.620Z,11.30
2017-12-08T15:47:14.364Z,11.40
2017-12-08T15:49:42.612Z,11.40
2017-12-08T15:52:10.851Z,11.40
2017-12-08T15:54:39.529Z,11.30
2017-12-08T15:57:07.793Z,11.30
2017-12-08T15:59:36.038Z,11.30
2017-12-08T16:02:04.541Z,10.90
2017-12-08T16:04:32.802Z,10.70
2017-12-08T16:07:01.030Z,9.90
2017-12-08T16:09:29.876Z,9.20
2017-12-08T16:11:58.981Z,9.20
2017-12-08T16:14:27.245Z,8.90
2017-12-08T16:16:55.520Z,8.40
2017-12-08T16:19:24.629Z,8.60
2017-12-08T16:21:53.500Z,9.00
2017-12-08T16:24:21.847Z,9.00
2017-12-08T16:26:50.667Z,9.20
2017-12-08T16:29:18.901Z,9.20
2017-12-08T16:31:47.676Z,9.60
2017-12-08T16:34:16.399Z,9.70
2017-12-08T16:36:44.679Z,9.70
2017-12-08T16:39:12.929Z,9.70
2017-12-08T16:41:41.156Z,9.80
2017-12-08T16:44:09.424Z,9.70
2017-12-08T16:46:37.688Z,9.70
2017-12-08T16:49:05.920Z,9.30
2017-12-08T16:51:34.252Z,8.50
2017-12-08T16:54:02.490Z,8.30
2017-12-08T16:56:30.744Z,8.00
2017-12-08T16:58:59.325Z,8.10
2017-12-08T17:01:27.612Z,7.90
2017-12-08T17:03:56.217Z,8.10
2017-12-08T17:06:24.457Z,8.10
2017-12-08T17:08:53.100Z,8.30
2017-12-08T17:11:21.363Z,8.30
2017-12-08T17:13:49.619Z,8.40
2017-12-08T17:16:17.856Z,8.30
2017-12-08T17:18:46.082Z,8.40
2017-12-08T17:21:14.396Z,8.60
2017-12-08T17:23:42.641Z,8.50
2017-12-08T17:26:10.881Z,8.60
2017-12-08T17:28:39.532Z,8.40
2017-12-08T17:31:07.780Z,8.40
2017-12-08T17:33:36.009Z,8.40
2017-12-08T17:36:04.671Z,9.00
2017-12-08T17:38:32.892Z,9.00
2017-12-08T17:41:01.855Z,9.10
2017-12-08T17:43:30.524Z,8.90
2017-12-08T17:45:58.764Z,9.00
2017-12-08T17:48:27.056Z,8.80
2017-12-08T17:50:55.305Z,8.70
2017-12-08T17:53:23.558Z,8.40
2017-12-08T17:55:51.777Z,8.00
2017-12-08T17:58:20.893Z,8.00
2017-12-08T18:00:49.255Z,8.10
2017-12-08T18:03:17.476Z,8.30
2017-12-08T18:05:46.216Z,8.60
2017-12-08T18:08:14.451Z,8.60
2017-12-08T18:10:42.683Z,8.80
2017-12-08T18:13:11.460Z,8.50
2017-12-08T18:15:39.701Z,8.50
2017-12-08T18:18:07.982Z,8.60
2017-12-08T18:20:39.284Z,8.80
2017-12-08T18:23:07.931Z,8.40
2017-12-08T18:25:36.176Z,8.40
2017-12-08T18:28:04.422Z,8.50
2017-12-08T18:30:33.052Z,7.80
2017-12-08T18:33:01.304Z,7.80
2017-12-08T18:35:29.550Z,7.90
2017-12-08T18:37:57.793Z,8.20
2017-12-08T18:40:26.899Z,8.10
2017-12-08T18:42:55.167Z,7.90
2017-12-08T18:45:23.408Z,8.00
2017-12-08T18:47:51.665Z,8.00
2017-12-08T18:50:20.281Z,7.90
2017-12-08T18:52:48.580Z,7.90
2017-12-08T18:55:16.839Z,8.00
2017-12-08T18:57:45.064Z,8.10
2017-12-08T19:00:13.313Z,8.20
2017-12-08T19:02:41.896Z,8.20
2017-12-08T19:05:10.144Z,8.10
2017-12-08T19:07:38.959Z,7.60
2017-12-08T19:10:07.209Z,6.80
2017-12-08T19:12:35.492Z,5.80
2017-12-08T19:15:03.992Z,6.10
2017-12-08T19:17:32.240Z,6.70
2017-12-08T19:20:00.550Z,7.20
2017-12-08T19:22:28.793Z,7.90
2017-12-08T19:24:57.030Z,8.50
2017-12-08T19:27:25.700Z,9.20
2017-12-08T19:29:53.933Z,9.20
2017-12-08T19:32:22.160Z,9.60
2017-12-08T19:34:50.803Z,10.00
2017-12-08T19:37:19.073Z,10.00
2017-12-08T19:39:47.346Z,10.00
2017-12-08T19:42:15.607Z,9.90
2017-12-08T19:44:43.967Z,10.10
2017-12-08T19:47:12.247Z,10.30
2017-12-08T19:49:40.567Z,10.50
2017-12-08T19:52:08.816Z,10.70
2017-12-08T19:54:37.076Z,10.80
2017-12-08T19:57:05.349Z,10.80
2017-12-08T19:59:34.002Z,10.60
2017-12-08T20:02:02.344Z,10.60
2017-12-08T20:04:30.648Z,10.50
2017-12-08T20:06:58.963Z,10.20
2017-12-08T20:09:27.616Z,10.30
2017-12-08T20:11:55.908Z,10.30
2017-12-08T20:14:24.244Z,10.50
2017-12-08T20:16:52.501Z,10.40
2017-12-08T20:19:20.743Z,10.50
2017-12-08T20:21:49.499Z,10.40
2017-12-08T20:24:17.784Z,10.50
2017-12-08T20:26:46.820Z,10.60
2017-12-08T20:29:15.074Z,10.60
2017-12-08T20:31:43.708Z,10.00
2017-12-08T20:34:11.968Z,10.00
2017-12-08T20:36:40.273Z,10.20
2017-12-08T20:39:08.521Z,10.30
2017-12-08T20:41:36.822Z,10.50
2017-12-08T20:44:05.095Z,10.50
2017-12-08T20:46:33.342Z,10.20
2017-12-08T20:49:01.754Z,10.30
2017-12-08T20:51:30.029Z,10.30
2017-12-08T20:53:58.625Z,10.50
2017-12-08T20:56:26.872Z,10.60
2017-12-08T20:58:55.149Z,10.60
2017-12-08T21:01:23.392Z,10.60
2017-12-08T21:03:51.661Z,10.40
2017-12-08T21:06:20.320Z,10.60
2017-12-08T21:08:48.590Z,10.60
2017-12-08T21:11:16.879Z,10.70
2017-12-08T21:13:45.243Z,10.70
2017-12-08T21:16:13.477Z,10.70
2017-12-08T21:18:41.731Z,10.70
2017-12-08T21:21:10.052Z,10.90
2017-12-08T21:23:38.310Z,11.20
2017-12-08T21:26:06.631Z,11.60
2017-12-08T21:28:34.917Z,11.40
2017-12-08T21:31:03.571Z,11.70
2017-12-08T21:33:31.820Z,11.70
2017-12-08T21:36:01.029Z,12.20
2017-12-08T21:38:29.305Z,12.60
2017-12-08T21:40:57.591Z,12.70
2017-12-08T21:43:25.852Z,11.90
2017-12-08T21:45:54.122Z,11.60
2017-12-08T21:48:22.567Z,12.00
2017-12-08T21:50:51.221Z,12.20
2017-12-08T21:53:19.465Z,12.20
2017-12-08T21:55:47.746Z,12.40
2017-12-08T21:58:16.059Z,12.70
2017-12-08T22:00:44.307Z,13.00
2017-12-08T22:03:12.614Z,13.10
2017-12-08T22:05:40.859Z,13.00
2017-12-08T22:08:09.117Z,12.90
2017-12-08T22:10:37.792Z,12.70
2017-12-08T22:13:06.037Z,12.50
2017-12-08T22:15:34.695Z,12.30
2017-12-08T22:18:03.003Z,12.30
2017-12-08T22:20:31.643Z,12.00
2017-12-08T22:22:59.907Z,12.00
2017-12-08T22:25:28.190Z,11.80
2017-12-08T22:27:56.447Z,11.50
2017-12-08T22:30:25.128Z,11.40
2017-12-08T22:32:53.427Z,11.20
2017-12-08T22:35:21.665Z,10.70
2017-12-08T22:37:49.947Z,10.60
2017-12-08T22:40:18.224Z,10.70
2017-12-08T22:42:46.475Z,10.80
2017-12-08T22:45:15.210Z,11.00
2017-12-08T22:47:43.451Z,11.00
2017-12-08T22:50:11.704Z,11.00
2017-12-08T22:52:39.957Z,10.80
2017-12-08T22:55:08.232Z,10.80
2017-12-08T22:57:36.464Z,10.80
2017-12-08T23:00:04.722Z,10.80
2017-12-08T23:02:33.928Z,10.60
2017-12-08T23:05:02.648Z,10.70
2017-12-08T23:07:30.994Z,10.70
2017-12-08T23:09:59.672Z,10.70
2017-12-08T23:12:28.324Z,10.70
2017-12-08T23:14:56.560Z,10.70
2017-12-08T23:17:24.864Z,10.70
2017-12-08T23:19:53.125Z,10.80
2017-12-08T23:22:21.365Z,10.80
2017-12-08T23:24:50.030Z,10.70
2017-12-08T23:27:18.271Z,10.70
2017-12-08T23:29:46.878Z,10.60
2017-12-08T23:32:15.189Z,10.50
2017-12-08T23:34:43.476Z,10.50
2017-12-08T23:37:11.712Z,10.40
2017-12-08T23:39:40.001Z,10.30
2017-12-08T23:42:08.641Z,10.10
2017-12-08T23:44:36.895Z,10.10
2017-12-08T23:47:05.197Z,10.10
2017-12-08T23:49:33.444Z,9.90
2017-12-08T23:52:01.672Z,9.60
2017-12-08T23:54:29.916Z,9.70
2017-12-08T23:56:58.153Z,8.50
2017-12-08T23:59:26.779Z,7.90
